Time;durP1;ratioP1;P1;durP2;ratioP2;P2;SDS_P1;SDS_P2;PMS_P1;PMS_P2;Temp;Humidity;BMP_temperature;BMP_pressure;BME280_temperature;BME280_humidity;BME280_pressure;Samples;Min_cycle;Max_cycle;Signal;HPM_P1;HPM_P2
2023/03/07 00:00:07;;;;;;;14.95;10.10;;;2.50;99.90;;;;;;5112573;28;20280;-50
2023/03/07 00:02:33;;;;;;;12.50;8.93;;;2.50;99.90;;;;;;5113103;28;20198;-49
2023/03/07 00:05:00;;;;;;;12.18;9.32;;;2.00;99.90;;;;;;5112685;28;20221;-51
2023/03/07 00:07:27;;;;;;;13.35;9.75;;;2.70;99.90;;;;;;5112826;28;20194;-50
2023/03/07 00:09:53;;;;;;;11.93;8.43;;;2.30;99.90;;;;;;5112310;28;20218;-49
2023/03/07 00:12:21;;;;;;;13.93;9.80;;;2.40;99.90;;;;;;5094355;28;20201;-50
2023/03/07 00:14:48;;;;;;;14.23;9.75;;;2.40;99.90;;;;;;5112634;28;20187;-51
2023/03/07 00:17:14;;;;;;;13.65;8.45;;;2.30;99.90;;;;;;5112573;28;20190;-50
2023/03/07 00:19:42;;;;;;;12.75;9.32;;;2.60;99.90;;;;;;5112261;28;20737;-50
2023/03/07 00:22:08;;;;;;;12.30;9.40;;;2.70;99.90;;;;;;5112515;28;20197;-49
2023/03/07 00:24:35;;;;;;;12.95;10.00;;;2.70;99.90;;;;;;5112486;28;20210;-49
2023/03/07 00:27:01;;;;;;;14.55;9.40;;;2.40;99.90;;;;;;5112451;28;20213;-50
2023/03/07 00:29:29;;;;;;;14.52;10.63;;;2.50;99.90;;;;;;5112055;28;20213;-49
2023/03/07 00:31:56;;;;;;;13.60;9.38;;;1.80;99.90;;;;;;5093344;28;20230;-50
2023/03/07 00:34:23;;;;;;;16.17;10.35;;;2.70;99.90;;;;;;5094252;28;20202;-49
2023/03/07 00:36:49;;;;;;;16.95;10.35;;;2.60;99.90;;;;;;5094294;28;20255;-50
2023/03/07 00:39:16;;;;;;;13.70;9.73;;;2.00;99.90;;;;;;5112082;28;20511;-50
2023/03/07 00:41:43;;;;;;;13.02;9.63;;;2.20;99.90;;;;;;5112500;28;20673;-50
2023/03/07 00:44:09;;;;;;;16.73;10.43;;;2.50;99.90;;;;;;5094086;28;20573;-50
2023/03/07 00:46:37;;;;;;;18.45;12.05;;;2.60;99.90;;;;;;5112394;28;20213;-50
2023/03/07 00:49:04;;;;;;;17.38;11.77;;;2.60;99.90;;;;;;5111806;28;20632;-50
2023/03/07 00:51:31;;;;;;;16.02;11.98;;;2.60;99.90;;;;;;5094008;28;20224;-49
2023/03/07 00:53:58;;;;;;;18.20;11.35;;;2.40;99.90;;;;;;5093875;28;20297;-50
2023/03/07 00:56:26;;;;;;;16.77;10.80;;;2.60;99.90;;;;;;5094181;28;20233;-49
2023/03/07 00:58:52;;;;;;;19.92;12.77;;;2.40;99.90;;;;;;5093554;28;20218;-50
2023/03/07 01:01:22;;;;;;;15.77;12.00;;;2.70;99.90;;;;;;5093941;28;20201;-50
2023/03/07 01:03:52;;;;;;;19.63;13.57;;;2.60;99.90;;;;;;5112339;28;20269;-50
2023/03/07 01:06:21;;;;;;;18.35;11.02;;;2.80;99.90;;;;;;5093919;28;20221;-50
2023/03/07 01:08:48;;;;;;;16.60;11.55;;;2.90;99.90;;;;;;5095647;28;20225;-49
2023/03/07 01:11:15;;;;;;;20.70;13.48;;;2.80;99.90;;;;;;5094030;28;20194;-49
2023/03/07 01:13:42;;;;;;;18.50;13.95;;;2.70;99.90;;;;;;5093916;28;20288;-50
2023/03/07 01:16:12;;;;;;;17.77;11.63;;;2.70;99.90;;;;;;5094022;28;20223;-49
2023/03/07 01:18:40;;;;;;;20.42;13.20;;;2.90;99.90;;;;;;5093303;28;20237;-50
2023/03/07 01:21:14;;;;;;;15.95;12.05;;;2.90;99.90;;;;;;5111958;28;20903;-49
2023/03/07 01:23:40;;;;;;;15.75;12.35;;;2.80;99.90;;;;;;5093657;28;20293;-50
2023/03/07 01:26:07;;;;;;;15.93;12.27;;;2.80;99.90;;;;;;5093777;28;20664;-49
2023/03/07 01:28:34;;;;;;;17.23;12.63;;;2.00;99.90;;;;;;5093233;28;20347;-50
2023/03/07 01:31:01;;;;;;;15.13;11.95;;;2.60;99.90;;;;;;5111913;28;20201;-50
2023/03/07 01:33:28;;;;;;;15.95;12.18;;;2.90;99.90;;;;;;5093434;28;20548;-50
2023/03/07 01:35:55;;;;;;;17.38;12.35;;;2.50;99.90;;;;;;5093541;28;20194;-51
2023/03/07 01:38:23;;;;;;;18.23;12.95;;;2.60;99.90;;;;;;5093172;28;20650;-49
2023/03/07 01:40:50;;;;;;;16.02;12.05;;;2.20;99.90;;;;;;5093600;28;20201;-49
2023/03/07 01:43:23;;;;;;;17.08;12.70;;;2.40;99.90;;;;;;5094312;28;20251;-49
2023/03/07 01:46:33;;;;;;;17.00;13.27;;;2.20;99.90;;;;;;5097211;28;20228;-50
2023/03/07 01:49:06;;;;;;;18.08;10.68;;;3.00;99.90;;;;;;5115018;28;20221;-49
2023/03/07 01:51:36;;;;;;;18.38;13.55;;;2.60;99.90;;;;;;5097274;28;20202;-49
2023/03/07 01:54:08;;;;;;;21.63;14.55;;;2.40;99.90;;;;;;5115308;28;20186;-49
2023/03/07 01:56:36;;;;;;;22.20;13.70;;;2.50;99.90;;;;;;5097026;28;20255;-50
2023/03/07 01:59:03;;;;;;;23.67;13.50;;;2.90;99.90;;;;;;5114845;28;20220;-50
2023/03/07 02:01:30;;;;;;;25.65;13.82;;;2.60;99.90;;;;;;5115145;28;20307;-50
2023/03/07 02:04:01;;;;;;;20.55;14.15;;;2.60;99.90;;;;;;5096857;28;20202;-49
2023/03/07 02:06:30;;;;;;;19.77;13.95;;;2.60;99.90;;;;;;5096779;28;20310;-49
2023/03/07 02:08:58;;;;;;;18.98;12.88;;;2.70;99.90;;;;;;5114669;28;20709;-49
2023/03/07 02:11:26;;;;;;;22.60;14.77;;;2.60;99.90;;;;;;5114936;28;20218;-49
2023/03/07 02:13:53;;;;;;;20.35;14.80;;;2.50;99.90;;;;;;5114958;28;20243;-49
2023/03/07 02:16:20;;;;;;;24.13;14.82;;;2.50;99.90;;;;;;5096589;28;20293;-50
2023/03/07 02:18:49;;;;;;;27.98;15.43;;;2.40;99.90;;;;;;5114394;28;20228;-50
2023/03/07 02:21:26;;;;;;;20.80;15.15;;;2.20;99.90;;;;;;5096774;28;20614;-50
2023/03/07 02:23:59;;;;;;;26.27;16.30;;;2.70;99.90;;;;;;5096620;28;20670;-50
2023/03/07 02:26:36;;;;;;;28.08;17.10;;;2.80;99.90;;;;;;5114813;28;20230;-50
2023/03/07 02:29:03;;;;;;;26.25;17.70;;;2.90;99.90;;;;;;5096953;28;20225;-50
2023/03/07 02:31:31;;;;;;;28.95;18.65;;;2.50;99.90;;;;;;5097128;28;20285;-49
2023/03/07 02:33:58;;;;;;;26.27;18.27;;;2.50;99.90;;;;;;5096576;28;20206;-50
2023/03/07 02:36:30;;;;;;;26.80;18.20;;;2.50;99.90;;;;;;5114907;28;20607;-50
2023/03/07 02:39:15;;;;;;;28.15;19.08;;;2.90;99.90;;;;;;5095875;28;20222;-50
2023/03/07 02:41:43;;;;;;;27.05;18.52;;;2.90;99.90;;;;;;5114555;28;20256;-50
2023/03/07 02:44:18;;;;;;;27.10;19.35;;;2.90;99.90;;;;;;5114332;28;20221;-50
2023/03/07 02:46:45;;;;;;;32.50;21.52;;;2.80;99.90;;;;;;5095917;28;20638;-50
2023/03/07 02:49:12;;;;;;;30.67;21.15;;;3.00;99.90;;;;;;5095660;28;20585;-49
2023/03/07 02:51:39;;;;;;;27.50;18.13;;;2.80;99.90;;;;;;5095761;28;20296;-50
2023/03/07 02:54:07;;;;;;;31.98;20.85;;;3.20;99.90;;;;;;5114171;28;20190;-50
2023/03/07 02:56:34;;;;;;;31.00;20.58;;;2.70;99.90;;;;;;5094994;28;20194;-51
2023/03/07 02:59:02;;;;;;;32.40;21.05;;;3.20;99.90;;;;;;5095220;28;20249;-50
2023/03/07 03:01:29;;;;;;;29.60;19.63;;;2.50;99.90;;;;;;5095661;28;20206;-50
2023/03/07 03:03:55;;;;;;;33.50;23.33;;;2.80;99.90;;;;;;5113970;28;20193;-49
2023/03/07 03:06:23;;;;;;;27.90;19.25;;;3.00;99.90;;;;;;5095557;28;20233;-50
2023/03/07 03:08:50;;;;;;;31.55;21.40;;;2.90;99.90;;;;;;5095230;28;20218;-50
2023/03/07 03:11:17;;;;;;;32.30;22.92;;;2.70;99.90;;;;;;5095521;28;20659;-50
2023/03/07 03:13:44;;;;;;;32.10;21.50;;;3.10;99.90;;;;;;5095385;28;20658;-50
2023/03/07 03:16:12;;;;;;;33.35;21.27;;;2.50;99.90;;;;;;5095578;28;20198;-49
2023/03/07 03:18:39;;;;;;;31.38;22.50;;;3.10;99.90;;;;;;5095024;28;20286;-50
2023/03/07 03:21:10;;;;;;;33.33;22.08;;;3.20;99.90;;;;;;5095326;28;20202;-49
2023/03/07 03:23:37;;;;;;;32.28;22.52;;;2.80;99.90;;;;;;5095344;28;20198;-51
2023/03/07 03:26:06;;;;;;;30.70;21.45;;;3.00;99.90;;;;;;5095424;28;20245;-51
2023/03/07 03:28:34;;;;;;;32.85;22.67;;;3.00;99.90;;;;;;5094783;28;20222;-49
2023/03/07 03:31:05;;;;;;;29.98;20.05;;;3.00;99.90;;;;;;5095000;28;20229;-51
2023/03/07 03:33:33;;;;;;;28.30;20.20;;;3.10;99.90;;;;;;5095181;28;20201;-49
2023/03/07 03:36:06;;;;;;;34.15;21.73;;;3.20;99.90;;;;;;5095226;28;20194;-49
2023/03/07 03:38:33;;;;;;;31.05;21.85;;;2.90;99.90;;;;;;5094523;28;20218;-49
2023/03/07 03:41:03;;;;;;;30.30;21.27;;;3.00;99.90;;;;;;5095030;28;20198;-50
2023/03/07 03:43:30;;;;;;;29.60;20.17;;;2.80;99.90;;;;;;5095011;28;20309;-50
2023/03/07 03:45:58;;;;;;;32.15;21.55;;;3.10;99.90;;;;;;5094820;28;20245;-50
2023/03/07 03:48:27;;;;;;;34.00;21.05;;;2.90;99.90;;;;;;5094519;28;20218;-50
2023/03/07 03:51:03;;;;;;;32.80;21.38;;;3.20;99.90;;;;;;5096234;28;20202;-50
2023/03/07 03:53:30;;;;;;;37.67;22.90;;;3.10;99.90;;;;;;5113447;28;20280;-50
2023/03/07 03:56:03;;;;;;;30.85;20.00;;;3.10;99.90;;;;;;5094728;28;20205;-50
2023/03/07 03:58:30;;;;;;;32.17;20.88;;;2.90;99.90;;;;;;5094159;28;20638;-50
2023/03/07 04:00:57;;;;;;;31.70;21.40;;;2.40;99.90;;;;;;5094804;28;20190;-50
2023/03/07 04:03:24;;;;;;;29.58;20.60;;;3.20;99.90;;;;;;5094534;28;20216;-50
2023/03/07 04:05:50;;;;;;;31.13;19.92;;;3.30;99.90;;;;;;5112277;28;20678;-50
2023/03/07 04:08:19;;;;;;;32.72;19.55;;;3.00;99.90;;;;;;5094389;28;20225;-50
2023/03/07 04:10:45;;;;;;;34.03;20.80;;;3.20;99.90;;;;;;5094365;28;20194;-50
2023/03/07 04:13:12;;;;;;;30.17;20.55;;;3.30;99.90;;;;;;5094478;28;20237;-49
2023/03/07 04:15:39;;;;;;;29.67;20.25;;;3.30;99.90;;;;;;5094350;28;20569;-50
2023/03/07 04:18:05;;;;;;;33.35;22.77;;;3.00;99.90;;;;;;5112179;28;20309;-49
2023/03/07 04:20:32;;;;;;;31.10;21.88;;;3.30;99.90;;;;;;5112562;28;20199;-50
2023/03/07 04:22:59;;;;;;;30.20;20.67;;;3.00;99.90;;;;;;5112597;28;20680;-51
2023/03/07 04:25:27;;;;;;;31.10;21.35;;;3.40;99.90;;;;;;5094114;28;20690;-49
2023/03/07 04:27:53;;;;;;;31.42;20.98;;;3.20;99.90;;;;;;5094271;28;20243;-49
2023/03/07 04:30:20;;;;;;;39.03;22.05;;;3.20;99.90;;;;;;5093659;28;20190;-48
2023/03/07 04:32:47;;;;;;;31.25;19.35;;;3.00;99.90;;;;;;5094131;28;20290;-49
2023/03/07 04:35:13;;;;;;;29.08;21.20;;;3.20;99.90;;;;;;5112550;28;20221;-51
2023/03/07 04:37:40;;;;;;;30.25;20.70;;;3.30;99.90;;;;;;5111958;28;20538;-49
2023/03/07 04:40:08;;;;;;;28.98;20.58;;;3.40;99.90;;;;;;5093769;28;20190;-49
2023/03/07 04:42:36;;;;;;;30.83;19.20;;;3.50;99.90;;;;;;5094080;28;20305;-49
2023/03/07 04:45:03;;;;;;;33.78;21.33;;;3.30;99.90;;;;;;5112420;28;20194;-49
2023/03/07 04:47:30;;;;;;;32.15;20.90;;;3.50;99.90;;;;;;5112306;28;20717;-50
2023/03/07 04:49:57;;;;;;;31.83;19.33;;;2.80;99.90;;;;;;5093406;28;20218;-50
2023/03/07 04:52:23;;;;;;;36.55;19.88;;;3.30;99.90;;;;;;5094149;28;20570;-50
2023/03/07 04:54:53;;;;;;;32.70;21.23;;;3.30;99.90;;;;;;5093940;28;20632;-50
2023/03/07 04:57:19;;;;;;;30.08;19.25;;;2.90;99.90;;;;;;5093759;28;20292;-50
2023/03/07 04:59:47;;;;;;;31.70;20.67;;;3.40;99.90;;;;;;5093426;28;20217;-50
2023/03/07 05:02:15;;;;;;;29.92;19.83;;;3.20;99.90;;;;;;5093918;28;20194;-49
2023/03/07 05:04:42;;;;;;;32.20;21.40;;;3.40;99.90;;;;;;5093831;28;20255;-49
2023/03/07 05:07:09;;;;;;;33.08;20.95;;;2.80;99.90;;;;;;5093505;28;20217;-50
2023/03/07 05:09:36;;;;;;;29.55;19.55;;;3.10;99.90;;;;;;5093342;28;20220;-49
2023/03/07 05:12:04;;;;;;;30.25;21.08;;;3.50;99.90;;;;;;5095077;28;20225;-49
2023/03/07 05:14:30;;;;;;;34.25;21.80;;;3.40;99.90;;;;;;5094938;28;20513;-50
2023/03/07 05:16:58;;;;;;;36.67;19.92;;;3.20;99.90;;;;;;5093710;28;20228;-51
2023/03/07 05:19:25;;;;;;;31.35;19.58;;;3.20;99.90;;;;;;5093795;22;20241;-51
2023/03/07 05:21:53;;;;;;;33.17;21.25;;;3.30;99.90;;;;;;5037553;28;20204;-50
2023/03/07 05:24:20;;;;;;;30.92;20.42;;;3.00;99.90;;;;;;5037396;28;20209;-51
2023/03/07 05:26:47;;;;;;;29.30;20.67;;;3.10;99.90;;;;;;5036684;28;20208;-50
2023/03/07 05:29:13;;;;;;;27.70;19.15;;;3.10;99.90;;;;;;5036273;28;20227;-49
2023/03/07 05:31:40;;;;;;;30.02;19.88;;;3.20;99.90;;;;;;5036556;28;20200;-50
2023/03/07 05:34:09;;;;;;;29.75;19.80;;;3.30;99.90;;;;;;5036840;28;20254;-50
2023/03/07 05:36:36;;;;;;;27.17;19.35;;;3.20;99.90;;;;;;5036690;28;20250;-50
2023/03/07 05:39:04;;;;;;;30.88;19.90;;;3.10;99.90;;;;;;5036362;28;20577;-50
2023/03/07 05:41:31;;;;;;;30.50;20.35;;;3.40;99.90;;;;;;5037306;28;20204;-51
2023/03/07 05:43:58;;;;;;;30.40;21.10;;;3.40;99.90;;;;;;5054703;28;20212;-50
2023/03/07 05:46:25;;;;;;;33.08;19.95;;;3.30;99.90;;;;;;5036563;28;20261;-51
2023/03/07 05:48:52;;;;;;;30.63;19.63;;;3.20;99.90;;;;;;5036364;28;20653;-51
2023/03/07 05:51:20;;;;;;;26.38;18.70;;;3.20;99.90;;;;;;5055146;28;20192;-51
2023/03/07 05:53:48;;;;;;;31.50;19.65;;;3.40;99.90;;;;;;5036892;28;20200;-51
2023/03/07 05:56:15;;;;;;;33.28;20.45;;;2.70;99.90;;;;;;5037008;28;20206;-51
2023/03/07 05:58:42;;;;;;;28.05;19.13;;;3.30;99.90;;;;;;5036187;28;20303;-50
2023/03/07 06:01:09;;;;;;;32.63;20.30;;;3.20;99.90;;;;;;5036830;28;20573;-51
2023/03/07 06:03:36;;;;;;;31.23;20.45;;;3.10;99.90;;;;;;5036476;28;20594;-49
2023/03/07 06:06:03;;;;;;;37.97;21.73;;;3.20;99.90;;;;;;5036321;28;20216;-50
2023/03/07 06:08:31;;;;;;;29.83;19.30;;;3.20;99.90;;;;;;5053784;28;20273;-50
2023/03/07 06:10:58;;;;;;;33.72;18.15;;;2.50;99.90;;;;;;5054148;28;20224;-51
2023/03/07 06:13:26;;;;;;;31.23;21.10;;;3.30;99.90;;;;;;5036423;28;20287;-51
2023/03/07 06:15:54;;;;;;;30.20;20.35;;;3.20;99.90;;;;;;5054497;28;20328;-51
2023/03/07 06:18:24;;;;;;;29.02;20.10;;;3.40;99.90;;;;;;5035663;28;20224;-51
2023/03/07 06:20:56;;;;;;;30.48;21.27;;;3.30;99.90;;;;;;5053669;28;20196;-51
2023/03/07 06:23:23;;;;;;;30.45;20.33;;;3.50;99.90;;;;;;5036341;28;20212;-51
2023/03/07 06:25:51;;;;;;;29.65;18.92;;;3.30;99.90;;;;;;5035891;28;20210;-50
2023/03/07 06:28:19;;;;;;;41.22;19.73;;;3.10;99.90;;;;;;5035459;28;20265;-51
2023/03/07 06:30:46;;;;;;;26.85;19.70;;;3.50;99.90;;;;;;5035390;28;20196;-51
2023/03/07 06:33:13;;;;;;;30.48;20.25;;;3.60;99.90;;;;;;5035729;28;20200;-51
2023/03/07 06:35:43;;;;;;;28.35;20.65;;;2.80;99.90;;;;;;5035344;28;20212;-51
2023/03/07 06:38:11;;;;;;;29.52;19.02;;;3.40;99.90;;;;;;5035388;28;20544;-51
2023/03/07 06:40:39;;;;;;;29.40;19.27;;;3.50;99.90;;;;;;5035560;28;20227;-51
2023/03/07 06:43:07;;;;;;;32.25;20.00;;;3.40;99.90;;;;;;5035277;28;20200;-51
2023/03/07 06:45:34;;;;;;;33.00;19.80;;;3.90;99.90;;;;;;5053142;28;20216;-54
2023/03/07 06:48:01;;;;;;;25.85;18.63;;;3.20;99.90;;;;;;5034466;28;20704;-52
2023/03/07 06:50:28;;;;;;;27.77;20.27;;;3.40;99.90;;;;;;5034660;28;20271;-52
2023/03/07 06:52:55;;;;;;;25.98;18.95;;;3.50;99.90;;;;;;5053210;28;20566;-51
2023/03/07 06:55:21;;;;;;;27.33;19.00;;;3.50;99.90;;;;;;5034977;28;20196;-51
2023/03/07 06:57:48;;;;;;;27.95;20.20;;;3.50;99.90;;;;;;5035135;28;20192;-51
2023/03/07 07:00:18;;;;;;;27.70;19.00;;;3.60;99.90;;;;;;5034455;28;20295;-52
2023/03/07 07:02:45;;;;;;;29.30;18.25;;;3.80;99.90;;;;;;5052723;28;20227;-51
2023/03/07 07:05:11;;;;;;;27.77;20.23;;;3.70;99.90;;;;;;5034838;28;20290;-51
2023/03/07 07:07:38;;;;;;;27.23;18.67;;;3.70;99.90;;;;;;5034983;28;20252;-51
2023/03/07 07:10:06;;;;;;;29.63;19.70;;;4.30;99.90;;;;;;5052612;28;20216;-50
2023/03/07 07:12:33;;;;;;;28.20;18.92;;;3.70;99.90;;;;;;5035416;28;20240;-51
2023/03/07 07:15:01;;;;;;;24.50;17.48;;;3.90;99.90;;;;;;5052935;28;20192;-51
2023/03/07 07:17:29;;;;;;;31.27;20.42;;;4.10;99.90;;;;;;5034255;28;20201;-52
2023/03/07 07:19:56;;;;;;;28.38;19.13;;;4.00;99.90;;;;;;5034215;28;20314;-51
2023/03/07 07:22:23;;;;;;;24.90;17.52;;;4.00;99.90;;;;;;5035480;28;20200;-52
2023/03/07 07:24:50;;;;;;;29.20;18.23;;;3.90;99.90;;;;;;5035963;28;20204;-51
2023/03/07 07:27:17;;;;;;;30.42;19.60;;;3.80;99.90;;;;;;5035545;28;20215;-51
2023/03/07 07:29:45;;;;;;;27.00;17.98;;;4.10;99.90;;;;;;5036560;28;20228;-51
2023/03/07 07:32:12;;;;;;;25.70;17.42;;;4.30;99.90;;;;;;5053414;28;20215;-53
2023/03/07 07:34:40;;;;;;;23.13;17.30;;;4.20;99.90;;;;;;5036196;28;20672;-51
2023/03/07 07:37:07;;;;;;;21.70;16.90;;;4.00;99.90;;;;;;5034654;28;20212;-52
2023/03/07 07:39:34;;;;;;;25.05;17.98;;;4.20;99.90;;;;;;5052071;28;20212;-51
2023/03/07 07:42:00;;;;;;;23.90;16.15;;;4.20;99.90;;;;;;5051863;28;20213;-51
2023/03/07 07:44:31;;;;;;;24.48;16.23;;;4.30;99.90;;;;;;5034467;28;20609;-51
2023/03/07 07:47:02;;;;;;;24.88;18.05;;;4.30;99.90;;;;;;5034221;28;20235;-53
2023/03/07 07:49:29;;;;;;;23.52;16.17;;;4.50;99.90;;;;;;5033609;28;20220;-52
2023/03/07 07:51:57;;;;;;;20.15;15.15;;;4.30;99.90;;;;;;5034580;28;20302;-52
2023/03/07 07:54:24;;;;;;;21.50;15.68;;;4.50;99.90;;;;;;5034247;28;20207;-52
2023/03/07 07:56:51;;;;;;;21.90;16.30;;;4.70;99.90;;;;;;5033815;28;20192;-51
2023/03/07 07:59:18;;;;;;;24.30;17.73;;;4.40;99.90;;;;;;5033375;28;20269;-52
2023/03/07 08:01:45;;;;;;;24.73;16.65;;;4.20;99.90;;;;;;5033739;28;20214;-52
2023/03/07 08:04:12;;;;;;;20.98;15.98;;;4.30;99.90;;;;;;5051571;28;20684;-50
2023/03/07 08:06:39;;;;;;;23.85;15.60;;;4.70;99.90;;;;;;5051427;28;20211;-51
2023/03/07 08:09:07;;;;;;;23.75;16.88;;;4.70;99.90;;;;;;5050786;28;20243;-51
2023/03/07 08:11:34;;;;;;;22.92;16.38;;;4.90;99.90;;;;;;5051584;28;20208;-52
2023/03/07 08:14:01;;;;;;;23.02;15.10;;;4.90;99.90;;;;;;5051530;28;20254;-52
2023/03/07 08:16:28;;;;;;;30.40;16.23;;;4.70;99.90;;;;;;5051776;28;20593;-51
2023/03/07 08:18:56;;;;;;;26.10;17.30;;;4.70;99.90;;;;;;5051272;28;20220;-51
2023/03/07 08:21:24;;;;;;;19.67;15.55;;;5.00;99.90;;;;;;5051476;28;20253;-51
2023/03/07 08:23:52;;;;;;;20.65;15.30;;;5.00;99.90;;;;;;5051496;28;20215;-51
2023/03/07 08:26:20;;;;;;;24.00;16.48;;;5.20;99.90;;;;;;5033730;28;20204;-52
2023/03/07 08:28:47;;;;;;;21.42;15.40;;;4.80;99.90;;;;;;5051169;28;20227;-50
2023/03/07 08:31:16;;;;;;;25.05;16.13;;;4.90;99.90;;;;;;5051505;28;20231;-51
2023/03/07 08:33:43;;;;;;;23.80;16.73;;;4.80;99.90;;;;;;5051836;28;20570;-51
2023/03/07 08:36:10;;;;;;;21.60;15.35;;;4.90;99.90;;;;;;5051776;28;20199;-52
2023/03/07 08:38:36;;;;;;;43.13;16.08;;;5.00;99.90;;;;;;5051238;28;20236;-52
2023/03/07 08:41:06;;;;;;;22.40;15.77;;;5.40;99.90;;;;;;5051806;28;20221;-52
2023/03/07 08:43:35;;;;;;;22.50;14.88;;;4.90;99.90;;;;;;5051246;28;20196;-52
2023/03/07 08:46:03;;;;;;;23.77;14.20;;;4.90;99.90;;;;;;5051569;28;20277;-51
2023/03/07 08:48:30;;;;;;;24.27;16.10;;;5.10;99.90;;;;;;5050896;28;20227;-51
2023/03/07 08:50:57;;;;;;;19.83;15.05;;;4.80;99.90;;;;;;5051292;28;20196;-51
2023/03/07 08:53:24;;;;;;;24.20;15.43;;;5.20;99.90;;;;;;5052428;28;20200;-52
2023/03/07 08:55:50;;;;;;;23.23;15.73;;;5.10;99.90;;;;;;5055636;28;20198;-51
2023/03/07 08:58:17;;;;;;;23.08;15.48;;;5.00;99.90;;;;;;5054892;28;20212;-51
2023/03/07 09:00:45;;;;;;;19.52;14.85;;;5.80;99.90;;;;;;5055417;28;20611;-51
2023/03/07 09:03:11;;;;;;;18.88;14.38;;;5.30;99.90;;;;;;5055194;28;20201;-52
2023/03/07 09:05:38;;;;;;;22.67;15.82;;;5.50;99.90;;;;;;5054950;28;20200;-52
2023/03/07 09:08:06;;;;;;;21.35;14.05;;;6.20;99.90;;;;;;5054532;28;20528;-50
2023/03/07 09:10:33;;;;;;;19.50;14.70;;;5.90;99.90;;;;;;5055403;28;20648;-51
2023/03/07 09:13:00;;;;;;;19.08;14.27;;;5.80;99.90;;;;;;5055144;28;20437;-50
2023/03/07 09:15:27;;;;;;;18.50;13.80;;;5.50;99.90;;;;;;5054788;28;20673;-51
2023/03/07 09:17:55;;;;;;;19.73;12.30;;;5.80;99.90;;;;;;5055452;28;20427;-51
2023/03/07 09:20:21;;;;;;;17.27;12.97;;;6.20;99.90;;;;;;5036343;28;20444;-52
2023/03/07 09:22:50;;;;;;;18.33;12.80;;;6.10;99.90;;;;;;5054905;28;20533;-51
2023/03/07 09:25:17;;;;;;;18.83;12.53;;;6.20;99.90;;;;;;5038328;28;20460;-51
2023/03/07 09:27:44;;;;;;;18.90;13.17;;;6.20;99.90;;;;;;5046143;28;20506;-51
2023/03/07 09:30:12;;;;;;;16.83;12.10;;;6.20;99.90;;;;;;5046555;28;20449;-52
2023/03/07 09:32:38;;;;;;;19.45;14.57;;;6.20;99.90;;;;;;5043655;28;20787;-51
2023/03/07 09:35:07;;;;;;;18.67;13.97;;;6.60;99.90;;;;;;5049040;28;20223;-51
2023/03/07 09:37:34;;;;;;;17.10;13.53;;;6.50;99.90;;;;;;5054541;28;20424;-51
2023/03/07 09:40:01;;;;;;;18.53;12.30;;;6.40;99.90;;;;;;5045578;28;20472;-51
2023/03/07 09:42:36;;;;;;;17.23;11.50;;;6.20;99.90;;;;;;5034145;28;20964;-51
2023/03/07 09:45:17;;;;;;;15.40;11.50;;;6.50;99.90;;;;;;5016738;28;20455;-52
2023/03/07 09:48:25;;;;;;;15.63;12.80;;;6.60;99.90;;;;;;5027058;28;20922;-52
2023/03/07 09:50:56;;;;;;;17.30;13.50;;;6.30;99.90;;;;;;5034244;28;20808;-52
2023/03/07 09:53:31;;;;;;;25.60;12.07;;;6.40;99.90;;;;;;5034394;28;20833;-50
2023/03/07 09:55:59;;;;;;;17.20;11.00;;;6.60;99.90;;;;;;5033672;28;20431;-51
2023/03/07 09:58:27;;;;;;;15.40;11.60;;;6.60;99.90;;;;;;5041578;28;20410;-52
2023/03/07 10:00:58;;;;;;;17.33;11.13;;;7.20;99.90;;;;;;5041489;28;20906;-52
2023/03/07 10:03:33;;;;;;;17.10;11.63;;;7.40;99.90;;;;;;5033949;28;20218;-51
2023/03/07 10:06:08;;;;;;;12.20;9.90;;;7.30;99.90;;;;;;5014981;28;20896;-52
2023/03/07 10:08:34;;;;;;;13.23;9.30;;;7.20;99.90;;;;;;5033521;28;20475;-51
2023/03/07 10:11:13;;;;;;;12.90;9.50;;;7.30;99.90;;;;;;5043502;28;20443;-51
2023/03/07 10:13:50;;;;;;;12.10;8.87;;;7.30;99.90;;;;;;5036660;28;20452;-51
2023/03/07 10:16:25;;;;;;;12.43;9.70;;;7.40;99.90;;;;;;5046292;28;20442;-51
2023/03/07 10:19:04;;;;;;;12.20;8.43;;;7.90;99.90;;;;;;5033463;28;20512;-50
2023/03/07 10:21:40;;;;;;;12.13;8.63;;;7.40;99.90;;;;;;5036688;28;20464;-50
2023/03/07 10:24:37;;;;;;;10.63;8.63;;;7.70;99.90;;;;;;5040897;28;20595;-51
2023/03/07 10:27:06;;;;;;;10.10;7.40;;;7.20;99.90;;;;;;5036655;28;20422;-50
2023/03/07 10:29:39;;;;;;;13.07;8.47;;;7.50;99.90;;;;;;5038194;28;20431;-51
2023/03/07 10:32:18;;;;;;;12.07;8.63;;;8.00;99.90;;;;;;5048144;28;20440;-50
2023/03/07 10:34:46;;;;;;;10.60;8.80;;;7.40;99.90;;;;;;5038486;28;20422;-51
2023/03/07 10:37:18;;;;;;;8.63;7.40;;;7.70;99.90;;;;;;5049544;28;20531;-51
2023/03/07 10:39:50;;;;;;;7.87;5.63;;;7.50;99.90;;;;;;5040503;28;20840;-50
2023/03/07 10:42:19;;;;;;;10.73;6.10;;;7.80;99.90;;;;;;5045901;28;20407;-51
2023/03/07 10:44:47;;;;;;;9.70;6.17;;;7.40;99.90;;;;;;5036836;28;20415;-51
2023/03/07 10:47:19;;;;;;;7.57;5.20;;;7.70;99.90;;;;;;5044133;28;20511;-52
2023/03/07 10:49:47;;;;;;;5.13;3.80;;;7.70;99.90;;;;;;5052188;28;20432;-50
2023/03/07 10:52:27;;;;;;;4.50;3.30;;;7.60;99.90;;;;;;5043372;28;20431;-51
2023/03/07 10:54:54;;;;;;;5.60;3.90;;;7.60;99.90;;;;;;5050203;28;20416;-50
2023/03/07 10:57:27;;;;;;;4.10;3.20;;;7.70;99.90;;;;;;5032960;28;20528;-50
2023/03/07 10:59:54;;;;;;;4.00;3.13;;;7.70;99.90;;;;;;5036517;28;20428;-51
2023/03/07 11:02:30;;;;;;;6.20;3.10;;;7.60;99.90;;;;;;5052671;28;20454;-50
2023/03/07 11:04:58;;;;;;;3.73;2.70;;;7.80;99.90;;;;;;5032820;28;20408;-52
2023/03/07 11:07:28;;;;;;;7.63;3.90;;;7.80;99.90;;;;;;5032674;28;20513;-50
2023/03/07 11:09:56;;;;;;;4.67;3.07;;;8.00;99.90;;;;;;5052027;28;20510;-50
2023/03/07 11:12:24;;;;;;;4.77;3.20;;;7.70;99.90;;;;;;5052456;28;20427;-50
2023/03/07 11:14:53;;;;;;;4.33;3.33;;;7.70;99.90;;;;;;5040341;28;20986;-51
2023/03/07 11:17:22;;;;;;;5.80;3.80;;;7.60;99.90;;;;;;5031848;28;20491;-50
2023/03/07 11:19:52;;;;;;;7.70;3.90;;;7.50;99.90;;;;;;5032841;28;20447;-50
2023/03/07 11:22:32;;;;;;;5.80;3.60;;;7.70;99.90;;;;;;5032295;28;20476;-50
2023/03/07 11:25:02;;;;;;;6.90;4.00;;;7.90;99.90;;;;;;5050660;28;20444;-49
2023/03/07 11:27:38;;;;;;;5.40;3.70;;;7.70;99.90;;;;;;5034312;28;20488;-50
2023/03/07 11:30:07;;;;;;;5.70;4.37;;;7.90;99.90;;;;;;5051986;28;20453;-50
2023/03/07 11:32:36;;;;;;;5.17;4.00;;;7.90;99.90;;;;;;5049522;28;20917;-50
2023/03/07 11:35:07;;;;;;;6.07;3.50;;;7.70;99.90;;;;;;5035821;28;20417;-50
2023/03/07 11:37:39;;;;;;;6.47;4.10;;;7.70;99.90;;;;;;5050058;28;20504;-50
2023/03/07 11:40:21;;;;;;;6.38;3.70;;;7.60;99.90;;;;;;5051102;28;20427;-50
2023/03/07 11:43:00;;;;;;;5.30;2.87;;;7.90;99.90;;;;;;5052428;28;20412;-50
2023/03/07 11:45:33;;;;;;;5.53;3.17;;;7.50;99.90;;;;;;5051801;28;20791;-49
2023/03/07 11:48:11;;;;;;;6.73;3.03;;;7.90;99.90;;;;;;5031759;28;20474;-49
2023/03/07 11:50:39;;;;;;;5.50;4.03;;;8.00;99.90;;;;;;5032326;28;20438;-50
2023/03/07 11:53:39;;;;;;;3.73;3.03;;;7.30;99.90;;;;;;5035420;28;20509;-50
2023/03/07 11:56:25;;;;;;;6.60;3.43;;;8.10;99.90;;;;;;5029107;28;20464;-50
2023/03/07 11:59:22;;;;;;;6.40;3.47;;;7.70;99.90;;;;;;5031520;28;20512;-50
2023/03/07 12:01:54;;;;;;;5.80;3.73;;;7.80;99.90;;;;;;5051798;28;20417;-51
2023/03/07 12:05:01;;;;;;;7.03;3.40;;;7.50;99.90;;;;;;5051733;28;20454;-51
2023/03/07 12:07:56;;;;;;;5.93;3.73;;;7.70;99.90;;;;;;4970873;28;20489;-49
2023/03/07 12:10:31;;;;;;;6.23;3.50;;;7.90;99.90;;;;;;4969110;28;20439;-50
2023/03/07 12:13:13;;;;;;;6.90;3.30;;;7.70;99.90;;;;;;4983003;28;20430;-50
2023/03/07 12:15:47;;;;;;;6.10;3.80;;;7.70;99.90;;;;;;4988482;28;20479;-50
2023/03/07 12:18:35;;;;;;;6.90;2.80;;;8.20;99.90;;;;;;4989580;28;20437;-49
2023/03/07 12:21:17;;;;;;;3.63;2.80;;;7.60;99.90;;;;;;4989604;28;20923;-50
2023/03/07 12:23:48;;;;;;;7.23;2.87;;;7.80;99.90;;;;;;4971206;28;20420;-50
2023/03/07 12:26:20;;;;;;;7.00;4.37;;;7.60;99.90;;;;;;4974261;28;21172;-51
2023/03/07 12:28:51;;;;;;;12.63;7.13;;;7.60;99.90;;;;;;4988466;28;20481;-51
2023/03/07 12:31:24;;;;;;;7.13;2.80;;;7.50;99.90;;;;;;4974317;28;20926;-51
2023/03/07 12:33:57;;;;;;;4.53;2.37;;;7.70;99.90;;;;;;4989028;28;20486;-51
2023/03/07 12:36:30;;;;;;;5.30;3.13;;;7.50;99.90;;;;;;4981432;28;20423;-50
2023/03/07 12:39:03;;;;;;;6.23;3.10;;;7.40;99.90;;;;;;5009349;28;20473;-50
2023/03/07 12:41:47;;;;;;;6.33;2.90;;;7.40;99.90;;;;;;5049627;28;20452;-50
2023/03/07 12:44:26;;;;;;;6.63;2.37;;;7.50;99.90;;;;;;5037627;28;20448;-50
2023/03/07 12:47:00;;;;;;;5.57;2.23;;;7.80;99.90;;;;;;5046116;28;20412;-51
2023/03/07 12:49:35;;;;;;;5.57;2.43;;;7.40;99.90;;;;;;5048369;28;20817;-50
2023/03/07 12:52:06;;;;;;;4.32;2.50;;;7.10;99.90;;;;;;5048169;28;20435;-49